sensor_id;sensor_type;location;lat;lon;timestamp;P1;durP1;ratioP1;P2;durP2;ratioP2
51907;SDS011;39320;53.214;6.556;2023-12-04T00:01:18;8.20;;;7.50;;
51907;SDS011;39320;53.214;6.556;2023-12-04T00:03:44;7.82;;;7.15;;
51907;SDS011;39320;53.214;6.556;2023-12-04T00:06:10;7.32;;;6.70;;
51907;SDS011;39320;53.214;6.556;2023-12-04T00:08:36;8.90;;;8.00;;
51907;SDS011;39320;53.214;6.556;2023-12-04T00:11:05;8.18;;;7.55;;
51907;SDS011;39320;53.214;6.556;2023-12-04T00:13:31;9.18;;;8.38;;
51907;SDS011;39320;53.214;6.556;2023-12-04T00:15:58;8.55;;;7.75;;
51907;SDS011;39320;53.214;6.556;2023-12-04T00:18:24;8.82;;;8.13;;
51907;SDS011;39320;53.214;6.556;2023-12-04T00:20:49;7.78;;;7.18;;
51907;SDS011;39320;53.214;6.556;2023-12-04T00:23:15;7.97;;;7.38;;
51907;SDS011;39320;53.214;6.556;2023-12-04T00:25:41;8.70;;;7.97;;
51907;SDS011;39320;53.214;6.556;2023-12-04T00:28:07;8.63;;;7.82;;
51907;SDS011;39320;53.214;6.556;2023-12-04T00:30:33;8.77;;;8.07;;
51907;SDS011;39320;53.214;6.556;2023-12-04T00:32:58;7.68;;;6.97;;
51907;SDS011;39320;53.214;6.556;2023-12-04T00:35:24;9.00;;;8.20;;
51907;SDS011;39320;53.214;6.556;2023-12-04T00:37:50;8.32;;;7.63;;
51907;SDS011;39320;53.214;6.556;2023-12-04T00:40:16;8.18;;;7.47;;
51907;SDS011;39320;53.214;6.556;2023-12-04T00:42:41;8.45;;;7.75;;
51907;SDS011;39320;53.214;6.556;2023-12-04T00:45:07;8.48;;;7.78;;
51907;SDS011;39320;53.214;6.556;2023-12-04T00:47:33;7.88;;;7.28;;
51907;SDS011;39320;53.214;6.556;2023-12-04T00:49:59;8.80;;;8.10;;
51907;SDS011;39320;53.214;6.556;2023-12-04T00:52:25;8.65;;;7.95;;
51907;SDS011;39320;53.214;6.556;2023-12-04T00:54:50;8.15;;;7.53;;
51907;SDS011;39320;53.214;6.556;2023-12-04T00:57:16;8.55;;;7.85;;
51907;SDS011;39320;53.214;6.556;2023-12-04T00:59:42;7.72;;;7.13;;
51907;SDS011;39320;53.214;6.556;2023-12-04T01:02:07;8.95;;;8.27;;
51907;SDS011;39320;53.214;6.556;2023-12-04T01:04:33;8.20;;;7.60;;
51907;SDS011;39320;53.214;6.556;2023-12-04T01:06:59;7.75;;;7.15;;
51907;SDS011;39320;53.214;6.556;2023-12-04T01:09:26;7.75;;;7.15;;
51907;SDS011;39320;53.214;6.556;2023-12-04T01:11:52;8.43;;;7.72;;
51907;SDS011;39320;53.214;6.556;2023-12-04T01:14:19;9.10;;;8.30;;
51907;SDS011;39320;53.214;6.556;2023-12-04T01:16:48;7.22;;;6.72;;
51907;SDS011;39320;53.214;6.556;2023-12-04T01:19:16;7.65;;;7.05;;
51907;SDS011;39320;53.214;6.556;2023-12-04T01:21:42;7.75;;;7.13;;
51907;SDS011;39320;53.214;6.556;2023-12-04T01:24:08;6.93;;;6.38;;
51907;SDS011;39320;53.214;6.556;2023-12-04T01:26:33;8.23;;;7.53;;
51907;SDS011;39320;53.214;6.556;2023-12-04T01:28:59;8.23;;;7.50;;
51907;SDS011;39320;53.214;6.556;2023-12-04T01:31:25;7.25;;;6.70;;
51907;SDS011;39320;53.214;6.556;2023-12-04T01:33:50;8.27;;;7.57;;
51907;SDS011;39320;53.214;6.556;2023-12-04T01:36:16;7.28;;;6.68;;
51907;SDS011;39320;53.214;6.556;2023-12-04T01:38:42;7.68;;;7.07;;
51907;SDS011;39320;53.214;6.556;2023-12-04T01:41:07;7.40;;;6.80;;
51907;SDS011;39320;53.214;6.556;2023-12-04T01:43:33;7.57;;;6.97;;
51907;SDS011;39320;53.214;6.556;2023-12-04T01:46:00;7.47;;;6.90;;
51907;SDS011;39320;53.214;6.556;2023-12-04T01:48:27;7.82;;;7.13;;
51907;SDS011;39320;53.214;6.556;2023-12-04T01:50:53;7.40;;;6.78;;
51907;SDS011;39320;53.214;6.556;2023-12-04T01:53:20;6.90;;;6.38;;
51907;SDS011;39320;53.214;6.556;2023-12-04T01:55:47;7.00;;;6.40;;
51907;SDS011;39320;53.214;6.556;2023-12-04T01:58:13;8.07;;;7.38;;
51907;SDS011;39320;53.214;6.556;2023-12-04T02:00:39;7.10;;;6.47;;
51907;SDS011;39320;53.214;6.556;2023-12-04T02:03:05;7.93;;;7.32;;
51907;SDS011;39320;53.214;6.556;2023-12-04T02:05:33;7.10;;;6.47;;
51907;SDS011;39320;53.214;6.556;2023-12-04T02:08:00;8.38;;;7.68;;
51907;SDS011;39320;53.214;6.556;2023-12-04T02:10:26;7.10;;;6.60;;
51907;SDS011;39320;53.214;6.556;2023-12-04T02:12:52;6.60;;;6.13;;
51907;SDS011;39320;53.214;6.556;2023-12-04T02:15:17;7.65;;;7.05;;
51907;SDS011;39320;53.214;6.556;2023-12-04T02:17:43;6.40;;;5.90;;
51907;SDS011;39320;53.214;6.556;2023-12-04T02:20:09;7.55;;;6.95;;
51907;SDS011;39320;53.214;6.556;2023-12-04T02:22:38;7.13;;;6.53;;
51907;SDS011;39320;53.214;6.556;2023-12-04T02:25:04;7.30;;;6.70;;
51907;SDS011;39320;53.214;6.556;2023-12-04T02:27:34;7.55;;;6.85;;
51907;SDS011;39320;53.214;6.556;2023-12-04T02:30:02;7.75;;;7.07;;
51907;SDS011;39320;53.214;6.556;2023-12-04T02:32:33;7.95;;;7.25;;
51907;SDS011;39320;53.214;6.556;2023-12-04T02:35:03;7.30;;;6.70;;
51907;SDS011;39320;53.214;6.556;2023-12-04T02:37:30;7.60;;;7.00;;
51907;SDS011;39320;53.214;6.556;2023-12-04T02:39:57;6.50;;;5.93;;
51907;SDS011;39320;53.214;6.556;2023-12-04T02:42:24;7.03;;;6.53;;
51907;SDS011;39320;53.214;6.556;2023-12-04T02:44:50;6.90;;;6.30;;
51907;SDS011;39320;53.214;6.556;2023-12-04T02:47:17;6.47;;;5.97;;
51907;SDS011;39320;53.214;6.556;2023-12-04T02:49:43;7.68;;;7.07;;
51907;SDS011;39320;53.214;6.556;2023-12-04T02:52:09;6.70;;;6.20;;
51907;SDS011;39320;53.214;6.556;2023-12-04T02:54:35;7.68;;;6.97;;
51907;SDS011;39320;53.214;6.556;2023-12-04T02:57:01;6.90;;;6.30;;
51907;SDS011;39320;53.214;6.556;2023-12-04T02:59:27;7.18;;;6.57;;
51907;SDS011;39320;53.214;6.556;2023-12-04T03:01:53;8.05;;;7.43;;
51907;SDS011;39320;53.214;6.556;2023-12-04T03:04:19;7.60;;;7.00;;
51907;SDS011;39320;53.214;6.556;2023-12-04T03:06:44;8.13;;;7.32;;
51907;SDS011;39320;53.214;6.556;2023-12-04T03:09:10;7.13;;;6.53;;
51907;SDS011;39320;53.214;6.556;2023-12-04T03:11:39;6.90;;;6.40;;
51907;SDS011;39320;53.214;6.556;2023-12-04T03:14:05;7.80;;;7.22;;
51907;SDS011;39320;53.214;6.556;2023-12-04T03:16:31;7.03;;;6.43;;
51907;SDS011;39320;53.214;6.556;2023-12-04T03:18:57;7.15;;;6.55;;
51907;SDS011;39320;53.214;6.556;2023-12-04T03:21:23;7.18;;;6.50;;
51907;SDS011;39320;53.214;6.556;2023-12-04T03:23:49;7.18;;;6.68;;
51907;SDS011;39320;53.214;6.556;2023-12-04T03:26:15;7.57;;;6.97;;
51907;SDS011;39320;53.214;6.556;2023-12-04T03:28:41;7.90;;;7.30;;
51907;SDS011;39320;53.214;6.556;2023-12-04T03:31:06;7.45;;;6.85;;
51907;SDS011;39320;53.214;6.556;2023-12-04T03:33:32;7.13;;;6.53;;
51907;SDS011;39320;53.214;6.556;2023-12-04T03:35:58;7.45;;;6.85;;
51907;SDS011;39320;53.214;6.556;2023-12-04T03:38:25;6.85;;;6.32;;
51907;SDS011;39320;53.214;6.556;2023-12-04T03:40:50;6.78;;;6.18;;
51907;SDS011;39320;53.214;6.556;2023-12-04T03:43:16;6.95;;;6.45;;
51907;SDS011;39320;53.214;6.556;2023-12-04T03:45:42;7.22;;;6.63;;
51907;SDS011;39320;53.214;6.556;2023-12-04T03:48:08;8.20;;;7.50;;
51907;SDS011;39320;53.214;6.556;2023-12-04T03:50:34;7.25;;;6.65;;
51907;SDS011;39320;53.214;6.556;2023-12-04T03:52:59;6.85;;;6.35;;
51907;SDS011;39320;53.214;6.556;2023-12-04T03:55:25;8.32;;;7.63;;
51907;SDS011;39320;53.214;6.556;2023-12-04T03:57:52;7.80;;;7.10;;
51907;SDS011;39320;53.214;6.556;2023-12-04T04:00:18;7.10;;;6.45;;
51907;SDS011;39320;53.214;6.556;2023-12-04T04:02:44;6.60;;;6.10;;
51907;SDS011;39320;53.214;6.556;2023-12-04T04:05:10;8.07;;;7.47;;
51907;SDS011;39320;53.214;6.556;2023-12-04T04:07:36;7.97;;;7.28;;
51907;SDS011;39320;53.214;6.556;2023-12-04T04:10:02;6.85;;;6.25;;
51907;SDS011;39320;53.214;6.556;2023-12-04T04:12:29;7.18;;;6.60;;
51907;SDS011;39320;53.214;6.556;2023-12-04T04:14:56;6.95;;;6.35;;
51907;SDS011;39320;53.214;6.556;2023-12-04T04:17:22;8.02;;;7.43;;
51907;SDS011;39320;53.214;6.556;2023-12-04T04:19:51;7.28;;;6.57;;
51907;SDS011;39320;53.214;6.556;2023-12-04T04:22:18;7.50;;;6.90;;
51907;SDS011;39320;53.214;6.556;2023-12-04T04:24:44;7.95;;;7.35;;
51907;SDS011;39320;53.214;6.556;2023-12-04T04:27:10;7.53;;;6.93;;
51907;SDS011;39320;53.214;6.556;2023-12-04T04:29:36;7.20;;;6.60;;
51907;SDS011;39320;53.214;6.556;2023-12-04T04:32:01;6.47;;;5.95;;
51907;SDS011;39320;53.214;6.556;2023-12-04T04:34:27;7.80;;;7.03;;
51907;SDS011;39320;53.214;6.556;2023-12-04T04:36:53;8.00;;;7.30;;
51907;SDS011;39320;53.214;6.556;2023-12-04T04:39:19;7.05;;;6.45;;
51907;SDS011;39320;53.214;6.556;2023-12-04T04:41:45;7.40;;;6.75;;
51907;SDS011;39320;53.214;6.556;2023-12-04T04:44:11;8.30;;;7.53;;
51907;SDS011;39320;53.214;6.556;2023-12-04T04:46:36;8.68;;;7.97;;
51907;SDS011;39320;53.214;6.556;2023-12-04T04:49:02;8.38;;;7.68;;
51907;SDS011;39320;53.214;6.556;2023-12-04T04:51:31;6.68;;;6.18;;
51907;SDS011;39320;53.214;6.556;2023-12-04T04:53:58;7.10;;;6.40;;
51907;SDS011;39320;53.214;6.556;2023-12-04T04:56:25;7.57;;;6.88;;
51907;SDS011;39320;53.214;6.556;2023-12-04T04:58:50;7.43;;;6.80;;
51907;SDS011;39320;53.214;6.556;2023-12-04T05:01:16;7.53;;;6.93;;
51907;SDS011;39320;53.214;6.556;2023-12-04T05:03:42;7.68;;;7.03;;
51907;SDS011;39320;53.214;6.556;2023-12-04T05:06:08;7.13;;;6.53;;
51907;SDS011;39320;53.214;6.556;2023-12-04T05:08:34;7.45;;;6.88;;
51907;SDS011;39320;53.214;6.556;2023-12-04T05:11:00;6.40;;;5.90;;
51907;SDS011;39320;53.214;6.556;2023-12-04T05:13:26;7.43;;;6.72;;
51907;SDS011;39320;53.214;6.556;2023-12-04T05:15:52;7.47;;;6.78;;
51907;SDS011;39320;53.214;6.556;2023-12-04T05:18:20;7.85;;;7.20;;
51907;SDS011;39320;53.214;6.556;2023-12-04T05:20:46;6.90;;;6.28;;
51907;SDS011;39320;53.214;6.556;2023-12-04T05:23:12;6.97;;;6.47;;
51907;SDS011;39320;53.214;6.556;2023-12-04T05:25:38;7.20;;;6.57;;
51907;SDS011;39320;53.214;6.556;2023-12-04T05:28:04;7.30;;;6.63;;
51907;SDS011;39320;53.214;6.556;2023-12-04T05:30:30;6.93;;;6.43;;
51907;SDS011;39320;53.214;6.556;2023-12-04T05:32:56;7.70;;;7.00;;
51907;SDS011;39320;53.214;6.556;2023-12-04T05:35:21;7.18;;;6.47;;
51907;SDS011;39320;53.214;6.556;2023-12-04T05:37:47;7.38;;;6.88;;
51907;SDS011;39320;53.214;6.556;2023-12-04T05:40:13;6.97;;;6.38;;
51907;SDS011;39320;53.214;6.556;2023-12-04T05:42:39;8.35;;;7.65;;
51907;SDS011;39320;53.214;6.556;2023-12-04T05:45:05;6.63;;;6.03;;
51907;SDS011;39320;53.214;6.556;2023-12-04T05:47:33;7.78;;;7.00;;
51907;SDS011;39320;53.214;6.556;2023-12-04T05:49:59;8.20;;;7.60;;
51907;SDS011;39320;53.214;6.556;2023-12-04T05:52:26;8.50;;;7.78;;
51907;SDS011;39320;53.214;6.556;2023-12-04T05:54:51;7.50;;;6.90;;
51907;SDS011;39320;53.214;6.556;2023-12-04T05:57:17;6.55;;;6.05;;
51907;SDS011;39320;53.214;6.556;2023-12-04T05:59:43;7.15;;;6.55;;
51907;SDS011;39320;53.214;6.556;2023-12-04T06:02:09;8.05;;;7.45;;
51907;SDS011;39320;53.214;6.556;2023-12-04T06:04:35;6.78;;;6.28;;
51907;SDS011;39320;53.214;6.556;2023-12-04T06:07:01;7.25;;;6.55;;
51907;SDS011;39320;53.214;6.556;2023-12-04T06:09:27;8.68;;;6.85;;
51907;SDS011;39320;53.214;6.556;2023-12-04T06:11:52;6.93;;;6.32;;
51907;SDS011;39320;53.214;6.556;2023-12-04T06:14:18;6.80;;;6.25;;
51907;SDS011;39320;53.214;6.556;2023-12-04T06:16:44;7.43;;;6.82;;
51907;SDS011;39320;53.214;6.556;2023-12-04T06:19:10;7.18;;;6.57;;
51907;SDS011;39320;53.214;6.556;2023-12-04T06:21:35;6.75;;;6.25;;
51907;SDS011;39320;53.214;6.556;2023-12-04T06:24:01;7.50;;;6.90;;
51907;SDS011;39320;53.214;6.556;2023-12-04T06:26:27;7.30;;;6.70;;
51907;SDS011;39320;53.214;6.556;2023-12-04T06:28:56;6.78;;;6.18;;
51907;SDS011;39320;53.214;6.556;2023-12-04T06:31:22;6.63;;;6.03;;
51907;SDS011;39320;53.214;6.556;2023-12-04T06:33:48;6.68;;;6.13;;
51907;SDS011;39320;53.214;6.556;2023-12-04T06:36:15;6.90;;;6.40;;
51907;SDS011;39320;53.214;6.556;2023-12-04T06:38:43;6.80;;;6.25;;
51907;SDS011;39320;53.214;6.556;2023-12-04T06:41:12;6.72;;;6.22;;
51907;SDS011;39320;53.214;6.556;2023-12-04T06:43:38;6.75;;;6.15;;
51907;SDS011;39320;53.214;6.556;2023-12-04T06:46:04;7.55;;;6.95;;
51907;SDS011;39320;53.214;6.556;2023-12-04T06:48:31;6.32;;;5.80;;
51907;SDS011;39320;53.214;6.556;2023-12-04T06:50:57;7.05;;;6.55;;
51907;SDS011;39320;53.214;6.556;2023-12-04T06:53:23;6.32;;;5.82;;
51907;SDS011;39320;53.214;6.556;2023-12-04T06:55:49;7.00;;;6.40;;
51907;SDS011;39320;53.214;6.556;2023-12-04T06:58:15;6.68;;;6.18;;
51907;SDS011;39320;53.214;6.556;2023-12-04T07:00:40;6.45;;;5.93;;
51907;SDS011;39320;53.214;6.556;2023-12-04T07:03:06;6.22;;;5.72;;
51907;SDS011;39320;53.214;6.556;2023-12-04T07:05:32;6.97;;;6.38;;
51907;SDS011;39320;53.214;6.556;2023-12-04T07:07:58;6.32;;;5.82;;
51907;SDS011;39320;53.214;6.556;2023-12-04T07:10:24;5.55;;;5.15;;
51907;SDS011;39320;53.214;6.556;2023-12-04T07:12:49;7.35;;;6.65;;
51907;SDS011;39320;53.214;6.556;2023-12-04T07:15:15;6.70;;;6.20;;
51907;SDS011;39320;53.214;6.556;2023-12-04T07:17:42;6.40;;;5.90;;
51907;SDS011;39320;53.214;6.556;2023-12-04T07:20:08;6.60;;;6.10;;
51907;SDS011;39320;53.214;6.556;2023-12-04T07:22:37;6.47;;;5.97;;
51907;SDS011;39320;53.214;6.556;2023-12-04T07:25:03;7.07;;;6.45;;
51907;SDS011;39320;53.214;6.556;2023-12-04T07:27:28;5.97;;;5.47;;
51907;SDS011;39320;53.214;6.556;2023-12-04T07:29:54;5.95;;;5.45;;
51907;SDS011;39320;53.214;6.556;2023-12-04T07:32:20;6.40;;;5.90;;
51907;SDS011;39320;53.214;6.556;2023-12-04T07:34:46;6.05;;;5.60;;
51907;SDS011;39320;53.214;6.556;2023-12-04T07:37:12;7.57;;;6.97;;
51907;SDS011;39320;53.214;6.556;2023-12-04T07:39:38;6.50;;;6.00;;
51907;SDS011;39320;53.214;6.556;2023-12-04T07:42:03;5.97;;;5.47;;
51907;SDS011;39320;53.214;6.556;2023-12-04T07:44:29;6.40;;;5.90;;
51907;SDS011;39320;53.214;6.556;2023-12-04T07:46:55;5.78;;;5.32;;
51907;SDS011;39320;53.214;6.556;2023-12-04T07:49:22;6.63;;;6.03;;
51907;SDS011;39320;53.214;6.556;2023-12-04T07:51:48;6.18;;;5.68;;
51907;SDS011;39320;53.214;6.556;2023-12-04T07:54:14;6.55;;;6.05;;
51907;SDS011;39320;53.214;6.556;2023-12-04T07:56:39;6.38;;;5.88;;
51907;SDS011;39320;53.214;6.556;2023-12-04T07:59:05;6.65;;;6.07;;
51907;SDS011;39320;53.214;6.556;2023-12-04T08:01:31;6.30;;;5.80;;
51907;SDS011;39320;53.214;6.556;2023-12-04T08:03:57;5.80;;;5.30;;
51907;SDS011;39320;53.214;6.556;2023-12-04T08:06:22;5.63;;;5.13;;
51907;SDS011;39320;53.214;6.556;2023-12-04T08:08:48;5.90;;;5.50;;
51907;SDS011;39320;53.214;6.556;2023-12-04T08:11:14;5.43;;;5.03;;
51907;SDS011;39320;53.214;6.556;2023-12-04T08:13:40;5.53;;;5.13;;
51907;SDS011;39320;53.214;6.556;2023-12-04T08:16:15;6.30;;;5.70;;
51907;SDS011;39320;53.214;6.556;2023-12-04T08:18:41;6.10;;;5.50;;
51907;SDS011;39320;53.214;6.556;2023-12-04T08:21:07;5.97;;;5.47;;
51907;SDS011;39320;53.214;6.556;2023-12-04T08:23:33;5.82;;;5.32;;
51907;SDS011;39320;53.214;6.556;2023-12-04T08:25:58;5.75;;;5.35;;
51907;SDS011;39320;53.214;6.556;2023-12-04T08:28:24;6.30;;;5.72;;
51907;SDS011;39320;53.214;6.556;2023-12-04T08:30:50;5.78;;;5.28;;
51907;SDS011;39320;53.214;6.556;2023-12-04T08:33:16;5.57;;;5.15;;
51907;SDS011;39320;53.214;6.556;2023-12-04T08:35:41;5.30;;;4.90;;
51907;SDS011;39320;53.214;6.556;2023-12-04T08:38:07;5.60;;;5.10;;
51907;SDS011;39320;53.214;6.556;2023-12-04T08:40:33;5.03;;;4.63;;
51907;SDS011;39320;53.214;6.556;2023-12-04T08:42:59;5.40;;;5.00;;
51907;SDS011;39320;53.214;6.556;2023-12-04T08:45:25;5.53;;;5.03;;
51907;SDS011;39320;53.214;6.556;2023-12-04T08:47:51;4.68;;;4.28;;
51907;SDS011;39320;53.214;6.556;2023-12-04T08:50:17;5.50;;;5.00;;
51907;SDS011;39320;53.214;6.556;2023-12-04T08:52:42;4.90;;;4.55;;
51907;SDS011;39320;53.214;6.556;2023-12-04T08:55:09;5.40;;;5.00;;
51907;SDS011;39320;53.214;6.556;2023-12-04T08:57:35;5.72;;;5.22;;
51907;SDS011;39320;53.214;6.556;2023-12-04T09:00:01;5.60;;;4.97;;
51907;SDS011;39320;53.214;6.556;2023-12-04T09:02:28;5.43;;;5.03;;
51907;SDS011;39320;53.214;6.556;2023-12-04T09:04:55;5.30;;;4.90;;
51907;SDS011;39320;53.214;6.556;2023-12-04T09:07:21;5.50;;;5.05;;
51907;SDS011;39320;53.214;6.556;2023-12-04T09:09:50;4.70;;;4.32;;
51907;SDS011;39320;53.214;6.556;2023-12-04T09:12:16;4.93;;;4.53;;
51907;SDS011;39320;53.214;6.556;2023-12-04T09:14:42;5.22;;;4.82;;
51907;SDS011;39320;53.214;6.556;2023-12-04T09:17:08;4.82;;;4.43;;
51907;SDS011;39320;53.214;6.556;2023-12-04T09:19:35;5.10;;;4.63;;
51907;SDS011;39320;53.214;6.556;2023-12-04T09:22:01;5.55;;;5.15;;
51907;SDS011;39320;53.214;6.556;2023-12-04T09:24:28;5.10;;;4.70;;
51907;SDS011;39320;53.214;6.556;2023-12-04T09:26:56;4.53;;;4.13;;
51907;SDS011;39320;53.214;6.556;2023-12-04T09:29:21;4.38;;;4.07;;
51907;SDS011;39320;53.214;6.556;2023-12-04T09:31:50;5.32;;;4.85;;
51907;SDS011;39320;53.214;6.556;2023-12-04T09:34:16;5.22;;;4.82;;
51907;SDS011;39320;53.214;6.556;2023-12-04T09:36:43;4.82;;;4.45;;
51907;SDS011;39320;53.214;6.556;2023-12-04T09:39:09;4.50;;;4.20;;
51907;SDS011;39320;53.214;6.556;2023-12-04T09:41:35;4.90;;;4.50;;
51907;SDS011;39320;53.214;6.556;2023-12-04T09:44:03;4.30;;;3.97;;
51907;SDS011;39320;53.214;6.556;2023-12-04T09:46:33;5.22;;;4.82;;
51907;SDS011;39320;53.214;6.556;2023-12-04T09:48:59;4.05;;;3.75;;
51907;SDS011;39320;53.214;6.556;2023-12-04T09:51:26;4.50;;;4.20;;
51907;SDS011;39320;53.214;6.556;2023-12-04T09:53:53;4.30;;;4.00;;
51907;SDS011;39320;53.214;6.556;2023-12-04T09:56:20;4.43;;;4.13;;
51907;SDS011;39320;53.214;6.556;2023-12-04T09:58:49;4.38;;;4.07;;
51907;SDS011;39320;53.214;6.556;2023-12-04T10:01:23;4.57;;;4.28;;
51907;SDS011;39320;53.214;6.556;2023-12-04T10:03:48;4.90;;;4.47;;
51907;SDS011;39320;53.214;6.556;2023-12-04T10:06:16;4.07;;;3.70;;
51907;SDS011;39320;53.214;6.556;2023-12-04T10:08:45;4.53;;;4.22;;
51907;SDS011;39320;53.214;6.556;2023-12-04T10:11:12;4.80;;;4.40;;
51907;SDS011;39320;53.214;6.556;2023-12-04T10:13:40;5.25;;;4.85;;
51907;SDS011;39320;53.214;6.556;2023-12-04T10:16:06;4.60;;;4.20;;
51907;SDS011;39320;53.214;6.556;2023-12-04T10:18:33;5.43;;;5.03;;
51907;SDS011;39320;53.214;6.556;2023-12-04T10:21:00;4.55;;;4.15;;
51907;SDS011;39320;53.214;6.556;2023-12-04T10:23:37;4.65;;;4.35;;
51907;SDS011;39320;53.214;6.556;2023-12-04T10:26:04;4.38;;;4.00;;
51907;SDS011;39320;53.214;6.556;2023-12-04T10:28:32;4.68;;;4.35;;
51907;SDS011;39320;53.214;6.556;2023-12-04T10:30:58;4.85;;;4.45;;
51907;SDS011;39320;53.214;6.556;2023-12-04T10:33:24;4.80;;;4.40;;
51907;SDS011;39320;53.214;6.556;2023-12-04T10:35:53;3.90;;;3.60;;
51907;SDS011;39320;53.214;6.556;2023-12-04T10:38:20;4.68;;;4.38;;
51907;SDS011;39320;53.214;6.556;2023-12-04T10:40:46;4.60;;;4.20;;
51907;SDS011;39320;53.214;6.556;2023-12-04T10:45:43;4.60;;;4.20;;
51907;SDS011;39320;53.214;6.556;2023-12-04T10:48:11;4.50;;;4.20;;
51907;SDS011;39320;53.214;6.556;2023-12-04T10:50:38;4.63;;;4.18;;
51907;SDS011;39320;53.214;6.556;2023-12-04T10:53:08;4.43;;;4.03;;
51907;SDS011;39320;53.214;6.556;2023-12-04T10:55:36;4.88;;;4.47;;
51907;SDS011;39320;53.214;6.556;2023-12-04T10:58:04;4.18;;;3.83;;
51907;SDS011;39320;53.214;6.556;2023-12-04T11:00:44;3.92;;;3.63;;
51907;SDS011;39320;53.214;6.556;2023-12-04T11:03:53;4.10;;;3.78;;
51907;SDS011;39320;53.214;6.556;2023-12-04T11:06:02;4.03;;;3.70;;
51907;SDS011;39320;53.214;6.556;2023-12-04T11:08:33;4.38;;;4.07;;
51907;SDS011;39320;53.214;6.556;2023-12-04T11:11:04;4.07;;;3.67;;
51907;SDS011;39320;53.214;6.556;2023-12-04T11:13:34;4.88;;;4.38;;
51907;SDS011;39320;53.214;6.556;2023-12-04T11:16:17;3.72;;;3.42;;
51907;SDS011;39320;53.214;6.556;2023-12-04T11:18:51;5.33;;;4.50;;
51907;SDS011;39320;53.214;6.556;2023-12-04T11:21:22;4.80;;;4.43;;
51907;SDS011;39320;53.214;6.556;2023-12-04T11:23:49;4.13;;;3.83;;
51907;SDS011;39320;53.214;6.556;2023-12-04T11:26:15;4.97;;;4.63;;
51907;SDS011;39320;53.214;6.556;2023-12-04T11:28:42;3.60;;;3.40;;
51907;SDS011;39320;53.214;6.556;2023-12-04T11:31:09;3.95;;;3.65;;
51907;SDS011;39320;53.214;6.556;2023-12-04T11:33:36;4.32;;;4.03;;
51907;SDS011;39320;53.214;6.556;2023-12-04T11:36:09;4.38;;;3.97;;
51907;SDS011;39320;53.214;6.556;2023-12-04T11:38:36;4.30;;;3.90;;
51907;SDS011;39320;53.214;6.556;2023-12-04T11:41:16;3.50;;;3.20;;
51907;SDS011;39320;53.214;6.556;2023-12-04T11:43:44;3.53;;;3.22;;
51907;SDS011;39320;53.214;6.556;2023-12-04T11:46:11;4.05;;;3.72;;
51907;SDS011;39320;53.214;6.556;2023-12-04T11:48:37;4.45;;;4.07;;
51907;SDS011;39320;53.214;6.556;2023-12-04T11:51:06;4.38;;;4.07;;
51907;SDS011;39320;53.214;6.556;2023-12-04T11:53:42;4.05;;;3.75;;
51907;SDS011;39320;53.214;6.556;2023-12-04T11:56:10;4.22;;;3.83;;
51907;SDS011;39320;53.214;6.556;2023-12-04T11:58:44;4.47;;;4.18;;
51907;SDS011;39320;53.214;6.556;2023-12-04T12:01:10;4.30;;;4.00;;
51907;SDS011;39320;53.214;6.556;2023-12-04T12:03:36;4.15;;;3.85;;
51907;SDS011;39320;53.214;6.556;2023-12-04T12:06:03;4.03;;;3.63;;
51907;SDS011;39320;53.214;6.556;2023-12-04T12:08:29;3.60;;;3.35;;
51907;SDS011;39320;53.214;6.556;2023-12-04T12:10:55;3.88;;;3.58;;
51907;SDS011;39320;53.214;6.556;2023-12-04T12:13:22;3.47;;;3.28;;
51907;SDS011;39320;53.214;6.556;2023-12-04T12:15:51;4.70;;;4.30;;
51907;SDS011;39320;53.214;6.556;2023-12-04T12:18:17;4.20;;;3.90;;
51907;SDS011;39320;53.214;6.556;2023-12-04T12:20:43;4.20;;;3.90;;
51907;SDS011;39320;53.214;6.556;2023-12-04T12:23:09;4.40;;;4.00;;
51907;SDS011;39320;53.214;6.556;2023-12-04T12:25:35;4.35;;;4.05;;
51907;SDS011;39320;53.214;6.556;2023-12-04T12:28:04;3.63;;;3.33;;
51907;SDS011;39320;53.214;6.556;2023-12-04T12:30:30;3.97;;;3.67;;
51907;SDS011;39320;53.214;6.556;2023-12-04T12:32:57;4.43;;;4.10;;
51907;SDS011;39320;53.214;6.556;2023-12-04T12:35:23;3.55;;;3.35;;
51907;SDS011;39320;53.214;6.556;2023-12-04T12:37:50;3.92;;;3.63;;
51907;SDS011;39320;53.214;6.556;2023-12-04T12:40:19;6.35;;;4.13;;
51907;SDS011;39320;53.214;6.556;2023-12-04T12:42:46;4.53;;;4.22;;
51907;SDS011;39320;53.214;6.556;2023-12-04T12:45:12;4.30;;;4.00;;
51907;SDS011;39320;53.214;6.556;2023-12-04T12:47:39;4.50;;;4.13;;
51907;SDS011;39320;53.214;6.556;2023-12-04T12:50:08;3.88;;;3.58;;
51907;SDS011;39320;53.214;6.556;2023-12-04T12:52:38;4.25;;;3.90;;
51907;SDS011;39320;53.214;6.556;2023-12-04T12:55:05;4.47;;;4.22;;
51907;SDS011;39320;53.214;6.556;2023-12-04T12:57:31;4.03;;;3.72;;
51907;SDS011;39320;53.214;6.556;2023-12-04T12:59:57;3.75;;;3.45;;
51907;SDS011;39320;53.214;6.556;2023-12-04T13:02:23;3.72;;;3.42;;
51907;SDS011;39320;53.214;6.556;2023-12-04T13:04:49;4.05;;;3.75;;
51907;SDS011;39320;53.214;6.556;2023-12-04T13:07:16;4.40;;;4.07;;
51907;SDS011;39320;53.214;6.556;2023-12-04T13:09:43;4.18;;;3.88;;
51907;SDS011;39320;53.214;6.556;2023-12-04T13:12:09;4.10;;;3.80;;
51907;SDS011;39320;53.214;6.556;2023-12-04T13:14:35;4.07;;;3.78;;
51907;SDS011;39320;53.214;6.556;2023-12-04T13:17:02;4.47;;;4.18;;
51907;SDS011;39320;53.214;6.556;2023-12-04T13:19:28;4.22;;;3.92;;
51907;SDS011;39320;53.214;6.556;2023-12-04T13:21:56;3.58;;;3.30;;
51907;SDS011;39320;53.214;6.556;2023-12-04T13:24:22;3.50;;;3.30;;
51907;SDS011;39320;53.214;6.556;2023-12-04T13:26:48;4.20;;;3.90;;
51907;SDS011;39320;53.214;6.556;2023-12-04T13:29:13;4.65;;;4.35;;
51907;SDS011;39320;53.214;6.556;2023-12-04T13:31:42;3.83;;;3.55;;
51907;SDS011;39320;53.214;6.556;2023-12-04T13:34:08;4.22;;;3.92;;
51907;SDS011;39320;53.214;6.556;2023-12-04T13:36:34;4.20;;;3.90;;
51907;SDS011;39320;53.214;6.556;2023-12-04T13:39:01;4.40;;;4.10;;
51907;SDS011;39320;53.214;6.556;2023-12-04T13:41:29;3.90;;;3.50;;
51907;SDS011;39320;53.214;6.556;2023-12-04T13:44:17;4.40;;;4.03;;
51907;SDS011;39320;53.214;6.556;2023-12-04T13:46:43;4.75;;;4.38;;
51907;SDS011;39320;53.214;6.556;2023-12-04T13:49:08;4.10;;;3.80;;
51907;SDS011;39320;53.214;6.556;2023-12-04T13:51:35;4.28;;;3.97;;
51907;SDS011;39320;53.214;6.556;2023-12-04T13:54:05;3.60;;;3.30;;
51907;SDS011;39320;53.214;6.556;2023-12-04T13:56:51;4.15;;;3.85;;
51907;SDS011;39320;53.214;6.556;2023-12-04T13:59:19;4.05;;;3.75;;
51907;SDS011;39320;53.214;6.556;2023-12-04T14:01:47;3.95;;;3.65;;
51907;SDS011;39320;53.214;6.556;2023-12-04T14:04:16;4.35;;;4.05;;
51907;SDS011;39320;53.214;6.556;2023-12-04T14:06:42;3.85;;;3.55;;
51907;SDS011;39320;53.214;6.556;2023-12-04T14:09:08;4.00;;;3.70;;
51907;SDS011;39320;53.214;6.556;2023-12-04T14:11:43;4.20;;;3.90;;
51907;SDS011;39320;53.214;6.556;2023-12-04T14:14:09;4.38;;;4.07;;
51907;SDS011;39320;53.214;6.556;2023-12-04T14:16:36;4.10;;;3.67;;
51907;SDS011;39320;53.214;6.556;2023-12-04T14:19:01;4.22;;;3.88;;
51907;SDS011;39320;53.214;6.556;2023-12-04T14:21:27;4.20;;;3.80;;
51907;SDS011;39320;53.214;6.556;2023-12-04T14:23:53;4.55;;;4.25;;
51907;SDS011;39320;53.214;6.556;2023-12-04T14:26:19;4.18;;;3.85;;
51907;SDS011;39320;53.214;6.556;2023-12-04T14:28:45;4.35;;;3.95;;
51907;SDS011;39320;53.214;6.556;2023-12-04T14:31:11;4.22;;;3.92;;
51907;SDS011;39320;53.214;6.556;2023-12-04T14:33:37;4.28;;;3.97;;
51907;SDS011;39320;53.214;6.556;2023-12-04T14:36:03;4.13;;;3.83;;
51907;SDS011;39320;53.214;6.556;2023-12-04T14:38:30;3.70;;;3.40;;
51907;SDS011;39320;53.214;6.556;2023-12-04T14:40:56;3.50;;;3.30;;
51907;SDS011;39320;53.214;6.556;2023-12-04T14:43:21;3.90;;;3.60;;
51907;SDS011;39320;53.214;6.556;2023-12-04T14:45:47;4.00;;;3.70;;
51907;SDS011;39320;53.214;6.556;2023-12-04T14:48:13;4.13;;;3.80;;